Jumping Branch, WV (25969)

12:11 PM EDT on April 19, 2015 (GMT -0400)
Flat Top Lake | | Change Station
CLOSE
Current Station
Personal Weather Station
Location: Ghent, WV
Elevation: 2969 ft
Nearby Weather Stations

Elev 2969 ft 37.62 °N, 81.09 °W | Updated 6 minutes ago

Rain
Rain
57.6 °F
Feels Like 57.6 °F
N
4.2
Wind Variable Wind from WNW

Today
High -- | Low -- °F
--% Chance of Precip.
Yesterday
High -- | Low -- °F
Precip. -- in
6:43 AM 8:03 PM
New Moon, 1% visible
Pressure 29.90 in
Visibility 9.0 miles
Clouds Few 3000 ft
Scattered Clouds 8000 ft
Overcast 9000 ft
Dew Point 57 °F
Humidity 99%
Rainfall 0.16 in
Snow Depth Not available.
UV 3 out of 12
Pollen 6.10 out of 12
Air Quality Not available.
Flu Activity Sporadic
METAR KBKW 191551Z AUTO 13018G26KT 9SM -RA FEW030 SCT080 OVC090 16/12 A2996 RMK AO2 PK WND 12026/1537 RAE1452B10 SLP125 P0000 T01560122

More Conditions Fewer Conditions

Pressure 29.90 in
Visibility 9.0 miles
Clouds Few 3000 ft
Scattered Clouds 8000 ft
Overcast 9000 ft
Dew Point 57 °F
Humidity 99%
Rainfall 0.16 in
Snow Depth Not available.
UV 3 out of 12
Pollen 6.10 out of 12
Air Quality Not available.
Flu Activity Sporadic
METAR KBKW 191551Z AUTO 13018G26KT 9SM -RA FEW030 SCT080 OVC090 16/12 A2996 RMK AO2 PK WND 12026/1537 RAE1452B10 SLP125 P0000 T01560122

More Conditions Fewer Conditions

10-Day Weather Forecast

Almanac

Astronomy

Apr. 19, 2015 Rise Set
Actual Time
Civil Twilight
Nautical Twilight
Astronomical Twilight
Moon
Length of Visible Light
Length of Day
Tomorrow will be .
, % of the Moon is Illuminated

Today's Extremes

State Highs State Lows

Community

WunderPhotos

Upload Photos

1,814,842 photos uploaded!

WunderBlogs® & News

Nearby

Air Quality

  Air Quality AQ Index Pollutant
Not available.

Snow Depth

Station Depth Elevation

Earthquake Activity

City Distance Mag. Time & Date
Minimum magnitude displayed is 2.5.

Coastal Water Temperatures

Place Temperature

Stations

Nearby Weather Stations

Station Location Temp. Windchill Dew Point Humidity Wind Precip. Elev Updated Type